sensor_id;sensor_type;location;lat;lon;timestamp;pressure;altitude;pressure_sealevel;temperature;humidity
54038;BME280;39954;48.844;9.726;2023-10-31T00:00:06;94612.75;;;8.93;100.00
54038;BME280;39954;48.844;9.726;2023-10-31T00:01:08;94598.47;;;8.87;100.00
54038;BME280;39954;48.844;9.726;2023-10-31T00:02:13;94598.84;;;8.83;100.00
54038;BME280;39954;48.844;9.726;2023-10-31T00:03:16;94595.44;;;8.82;100.00
54038;BME280;39954;48.844;9.726;2023-10-31T00:04:18;94600.63;;;8.82;100.00
54038;BME280;39954;48.844;9.726;2023-10-31T00:05:23;94593.91;;;8.80;100.00
54038;BME280;39954;48.844;9.726;2023-10-31T00:06:25;94600.00;;;8.79;100.00
54038;BME280;39954;48.844;9.726;2023-10-31T00:07:30;94599.06;;;8.80;100.00
54038;BME280;39954;48.844;9.726;2023-10-31T00:08:32;94591.31;;;8.80;100.00
54038;BME280;39954;48.844;9.726;2023-10-31T00:09:37;94590.34;;;8.81;100.00
54038;BME280;39954;48.844;9.726;2023-10-31T00:10:41;94598.22;;;8.79;100.00
54038;BME280;39954;48.844;9.726;2023-10-31T00:11:46;94596.59;;;8.78;100.00
54038;BME280;39954;48.844;9.726;2023-10-31T00:12:48;94597.53;;;8.77;100.00
54038;BME280;39954;48.844;9.726;2023-10-31T00:13:56;94598.34;;;8.78;100.00
54038;BME280;39954;48.844;9.726;2023-10-31T00:14:59;94596.72;;;8.77;100.00
54038;BME280;39954;48.844;9.726;2023-10-31T00:16:04;94599.16;;;8.78;100.00
54038;BME280;39954;48.844;9.726;2023-10-31T00:17:07;94603.75;;;8.74;100.00
54038;BME280;39954;48.844;9.726;2023-10-31T00:18:09;94608.72;;;8.78;100.00
54038;BME280;39954;48.844;9.726;2023-10-31T00:19:14;94608.72;;;8.78;100.00
54038;BME280;39954;48.844;9.726;2023-10-31T00:20:16;94618.13;;;8.79;100.00
54038;BME280;39954;48.844;9.726;2023-10-31T00:21:22;94616.72;;;8.74;100.00
54038;BME280;39954;48.844;9.726;2023-10-31T00:22:24;94610.72;;;8.74;100.00
54038;BME280;39954;48.844;9.726;2023-10-31T00:23:29;94609.66;;;8.77;100.00
54038;BME280;39954;48.844;9.726;2023-10-31T00:24:31;94610.59;;;8.76;100.00
54038;BME280;39954;48.844;9.726;2023-10-31T00:25:36;94609.84;;;8.73;100.00
54038;BME280;39954;48.844;9.726;2023-10-31T00:26:38;94602.09;;;8.73;100.00
54038;BME280;39954;48.844;9.726;2023-10-31T00:27:43;94607.25;;;8.73;100.00
54038;BME280;39954;48.844;9.726;2023-10-31T00:28:45;94604.81;;;8.72;100.00
54038;BME280;39954;48.844;9.726;2023-10-31T00:29:53;94609.16;;;8.71;100.00
54038;BME280;39954;48.844;9.726;2023-10-31T00:30:55;94606.44;;;8.73;100.00
54038;BME280;39954;48.844;9.726;2023-10-31T00:32:03;94612.66;;;8.70;100.00
54038;BME280;39954;48.844;9.726;2023-10-31T00:33:07;94603.97;;;8.71;100.00
54038;BME280;39954;48.844;9.726;2023-10-31T00:34:13;94603.97;;;8.71;100.00
54038;BME280;39954;48.844;9.726;2023-10-31T00:35:15;94599.84;;;8.69;100.00
54038;BME280;39954;48.844;9.726;2023-10-31T00:36:18;94593.84;;;8.68;100.00
54038;BME280;39954;48.844;9.726;2023-10-31T00:37:23;94605.03;;;8.69;100.00
54038;BME280;39954;48.844;9.726;2023-10-31T00:38:25;94599.94;;;8.67;100.00
54038;BME280;39954;48.844;9.726;2023-10-31T00:39:30;94603.25;;;8.69;100.00
54038;BME280;39954;48.844;9.726;2023-10-31T00:40:32;94608.44;;;8.69;100.00
54038;BME280;39954;48.844;9.726;2023-10-31T00:41:38;94609.84;;;8.73;100.00
54038;BME280;39954;48.844;9.726;2023-10-31T00:42:41;94609.84;;;8.73;100.00
54038;BME280;39954;48.844;9.726;2023-10-31T00:43:46;94597.03;;;8.72;100.00
54038;BME280;39954;48.844;9.726;2023-10-31T00:44:48;94597.84;;;8.72;100.00
54038;BME280;39954;48.844;9.726;2023-10-31T00:45:56;94603.25;;;8.69;100.00
54038;BME280;39954;48.844;9.726;2023-10-31T00:46:58;94606.91;;;8.67;100.00
54038;BME280;39954;48.844;9.726;2023-10-31T00:48:04;94612.81;;;8.69;100.00
54038;BME280;39954;48.844;9.726;2023-10-31T00:49:06;94609.16;;;8.71;100.00
54038;BME280;39954;48.844;9.726;2023-10-31T00:50:11;94607.00;;;8.65;100.00
54038;BME280;39954;48.844;9.726;2023-10-31T00:51:14;94611.97;;;8.68;100.00
54038;BME280;39954;48.844;9.726;2023-10-31T00:52:19;94597.13;;;8.70;100.00
54038;BME280;39954;48.844;9.726;2023-10-31T00:53:21;94611.97;;;8.68;100.00
54038;BME280;39954;48.844;9.726;2023-10-31T00:54:26;94598.53;;;8.63;100.00
54038;BME280;39954;48.844;9.726;2023-10-31T00:55:28;94600.31;;;8.63;100.00
54038;BME280;39954;48.844;9.726;2023-10-31T00:56:32;94597.81;;;8.61;100.00
54038;BME280;39954;48.844;9.726;2023-10-31T00:57:37;94611.59;;;8.62;100.00
54038;BME280;39954;48.844;9.726;2023-10-31T00:58:42;94615.94;;;8.61;100.00
54038;BME280;39954;48.844;9.726;2023-10-31T00:59:44;94604.84;;;8.59;100.00
54038;BME280;39954;48.844;9.726;2023-10-31T01:00:49;94606.75;;;8.57;100.00
54038;BME280;39954;48.844;9.726;2023-10-31T01:01:54;94605.81;;;8.58;100.00
54038;BME280;39954;48.844;9.726;2023-10-31T01:02:58;94605.81;;;8.58;100.00
54038;BME280;39954;48.844;9.726;2023-10-31T01:04:01;94609.34;;;8.57;100.00
54038;BME280;39954;48.844;9.726;2023-10-31T01:05:06;94616.38;;;8.55;100.00
54038;BME280;39954;48.844;9.726;2023-10-31T01:06:09;94618.16;;;8.55;100.00
54038;BME280;39954;48.844;9.726;2023-10-31T01:07:14;94618.25;;;8.53;100.00
54038;BME280;39954;48.844;9.726;2023-10-31T01:08:18;94617.31;;;8.54;100.00
54038;BME280;39954;48.844;9.726;2023-10-31T01:09:23;94614.03;;;8.52;100.00
54038;BME280;39954;48.844;9.726;2023-10-31T01:10:25;94617.53;;;8.51;100.00
54038;BME280;39954;48.844;9.726;2023-10-31T01:11:30;94617.53;;;8.51;100.00
54038;BME280;39954;48.844;9.726;2023-10-31T01:12:32;94618.38;;;8.51;100.00
54038;BME280;39954;48.844;9.726;2023-10-31T01:13:37;94612.56;;;8.48;100.00
54038;BME280;39954;48.844;9.726;2023-10-31T01:14:39;94612.56;;;8.48;100.00
54038;BME280;39954;48.844;9.726;2023-10-31T01:15:44;94605.03;;;8.45;100.00
54038;BME280;39954;48.844;9.726;2023-10-31T01:16:46;94610.72;;;8.50;100.00
54038;BME280;39954;48.844;9.726;2023-10-31T01:17:53;94621.88;;;8.50;100.00
54038;BME280;39954;48.844;9.726;2023-10-31T01:18:56;94622.00;;;8.49;100.00
54038;BME280;39954;48.844;9.726;2023-10-31T01:20:01;94620.84;;;8.53;100.00
54038;BME280;39954;48.844;9.726;2023-10-31T01:21:03;94626.25;;;8.50;100.00
54038;BME280;39954;48.844;9.726;2023-10-31T01:22:08;94627.06;;;8.50;100.00
54038;BME280;39954;48.844;9.726;2023-10-31T01:23:10;94626.03;;;8.53;100.00
54038;BME280;39954;48.844;9.726;2023-10-31T01:24:15;94629.56;;;8.52;100.00
54038;BME280;39954;48.844;9.726;2023-10-31T01:25:17;94621.78;;;8.52;100.00
54038;BME280;39954;48.844;9.726;2023-10-31T01:26:22;94627.19;;;8.49;100.00
54038;BME280;39954;48.844;9.726;2023-10-31T01:27:24;94625.28;;;8.51;100.00
54038;BME280;39954;48.844;9.726;2023-10-31T01:28:29;94623.75;;;8.48;100.00
54038;BME280;39954;48.844;9.726;2023-10-31T01:29:34;94624.59;;;8.49;100.00
54038;BME280;39954;48.844;9.726;2023-10-31T01:30:38;94630.25;;;8.54;100.00
54038;BME280;39954;48.844;9.726;2023-10-31T01:31:41;94634.00;;;8.50;100.00
54038;BME280;39954;48.844;9.726;2023-10-31T01:32:45;94638.97;;;8.53;100.00
54038;BME280;39954;48.844;9.726;2023-10-31T01:33:53;94634.50;;;8.55;100.00
54038;BME280;39954;48.844;9.726;2023-10-31T01:34:55;94643.19;;;8.54;100.00
54038;BME280;39954;48.844;9.726;2023-10-31T01:36:03;94638.97;;;8.53;100.00
54038;BME280;39954;48.844;9.726;2023-10-31T01:37:05;94634.72;;;8.52;100.00
54038;BME280;39954;48.844;9.726;2023-10-31T01:38:10;94639.19;;;8.50;100.00
54038;BME280;39954;48.844;9.726;2023-10-31T01:39:12;94641.56;;;8.53;100.00
54038;BME280;39954;48.844;9.726;2023-10-31T01:40:18;94644.47;;;8.48;100.00
54038;BME280;39954;48.844;9.726;2023-10-31T01:41:22;94648.81;;;8.48;100.00
54038;BME280;39954;48.844;9.726;2023-10-31T01:42:27;94646.88;;;8.51;100.00
54038;BME280;39954;48.844;9.726;2023-10-31T01:43:30;94647.91;;;8.49;100.00
54038;BME280;39954;48.844;9.726;2023-10-31T01:44:35;94649.88;;;8.45;100.00
54038;BME280;39954;48.844;9.726;2023-10-31T01:45:38;94655.03;;;8.45;100.00
54038;BME280;39954;48.844;9.726;2023-10-31T01:46:42;94645.31;;;8.49;100.00
54038;BME280;39954;48.844;9.726;2023-10-31T01:47:47;94660.00;;;8.48;100.00
54038;BME280;39954;48.844;9.726;2023-10-31T01:48:55;94654.94;;;8.47;100.00
54038;BME280;39954;48.844;9.726;2023-10-31T01:49:57;94659.31;;;8.46;100.00
54038;BME280;39954;48.844;9.726;2023-10-31T01:51:03;94665.00;;;8.39;100.00
54038;BME280;39954;48.844;9.726;2023-10-31T01:52:06;94675.03;;;8.30;100.00
54038;BME280;39954;48.844;9.726;2023-10-31T01:53:11;94665.50;;;8.31;100.00
54038;BME280;39954;48.844;9.726;2023-10-31T01:54:14;94683.75;;;8.29;100.00
54038;BME280;39954;48.844;9.726;2023-10-31T01:55:16;94674.97;;;8.19;100.00
54038;BME280;39954;48.844;9.726;2023-10-31T01:56:21;94679.53;;;8.16;100.00
54038;BME280;39954;48.844;9.726;2023-10-31T01:57:24;94695.06;;;8.16;100.00
54038;BME280;39954;48.844;9.726;2023-10-31T01:58:31;94684.94;;;8.13;100.00
54038;BME280;39954;48.844;9.726;2023-10-31T01:59:33;94684.00;;;8.14;100.00
54038;BME280;39954;48.844;9.726;2023-10-31T02:00:40;94679.84;;;8.11;100.00
54038;BME280;39954;48.844;9.726;2023-10-31T02:01:42;94685.16;;;8.10;100.00
54038;BME280;39954;48.844;9.726;2023-10-31T02:02:47;94685.97;;;8.10;100.00
54038;BME280;39954;48.844;9.726;2023-10-31T02:03:51;94687.91;;;8.06;100.00
54038;BME280;39954;48.844;9.726;2023-10-31T02:04:59;94693.00;;;8.08;100.00
54038;BME280;39954;48.844;9.726;2023-10-31T02:06:01;94690.50;;;8.06;100.00
54038;BME280;39954;48.844;9.726;2023-10-31T02:07:06;94689.69;;;8.06;100.00
54038;BME280;39954;48.844;9.726;2023-10-31T02:08:09;94690.53;;;7.94;100.00
54038;BME280;39954;48.844;9.726;2023-10-31T02:09:14;94683.28;;;7.99;100.00
54038;BME280;39954;48.844;9.726;2023-10-31T02:10:17;94695.72;;;7.94;100.00
54038;BME280;39954;48.844;9.726;2023-10-31T02:11:21;94691.78;;;7.88;100.00
54038;BME280;39954;48.844;9.726;2023-10-31T02:12:33;94687.66;;;7.85;100.00
54038;BME280;39954;48.844;9.726;2023-10-31T02:13:38;94701.09;;;7.78;100.00
54038;BME280;39954;48.844;9.726;2023-10-31T02:14:41;94707.50;;;7.72;100.00
54038;BME280;39954;48.844;9.726;2023-10-31T02:15:46;94701.44;;;7.73;100.00
54038;BME280;39954;48.844;9.726;2023-10-31T02:16:48;94706.81;;;7.70;100.00
54038;BME280;39954;48.844;9.726;2023-10-31T02:17:53;94713.41;;;7.74;100.00
54038;BME280;39954;48.844;9.726;2023-10-31T02:18:55;94715.38;;;7.71;100.00
54038;BME280;39954;48.844;9.726;2023-10-31T02:20:03;94713.22;;;7.65;100.00
54038;BME280;39954;48.844;9.726;2023-10-31T02:21:06;94713.09;;;7.66;100.00
54038;BME280;39954;48.844;9.726;2023-10-31T02:22:14;94715.16;;;7.61;100.00
54038;BME280;39954;48.844;9.726;2023-10-31T02:23:16;94716.84;;;7.62;100.00
54038;BME280;39954;48.844;9.726;2023-10-31T02:24:20;94717.88;;;7.59;100.00
54038;BME280;39954;48.844;9.726;2023-10-31T02:25:22;94722.38;;;7.56;100.00
54038;BME280;39954;48.844;9.726;2023-10-31T02:26:31;94722.00;;;7.62;100.00
54038;BME280;39954;48.844;9.726;2023-10-31T02:27:33;94724.81;;;7.59;100.00
54038;BME280;39954;48.844;9.726;2023-10-31T02:28:38;94726.53;;;7.58;100.00
54038;BME280;39954;48.844;9.726;2023-10-31T02:29:40;94727.75;;;7.53;100.00
54038;BME280;39954;48.844;9.726;2023-10-31T02:30:45;94724.97;;;7.56;100.00
54038;BME280;39954;48.844;9.726;2023-10-31T02:31:47;94725.72;;;7.58;100.00
54038;BME280;39954;48.844;9.726;2023-10-31T02:32:52;94729.44;;;7.54;100.00
54038;BME280;39954;48.844;9.726;2023-10-31T02:33:55;94726.13;;;7.52;100.00
54038;BME280;39954;48.844;9.726;2023-10-31T02:34:59;94730.69;;;7.48;100.00
54038;BME280;39954;48.844;9.726;2023-10-31T02:36:02;94737.56;;;7.48;100.00
54038;BME280;39954;48.844;9.726;2023-10-31T02:37:07;94731.69;;;7.46;100.00
54038;BME280;39954;48.844;9.726;2023-10-31T02:38:12;94725.09;;;7.54;100.00
54038;BME280;39954;48.844;9.726;2023-10-31T02:39:17;94727.56;;;7.56;100.00
54038;BME280;39954;48.844;9.726;2023-10-31T02:40:19;94726.00;;;7.53;100.00
54038;BME280;39954;48.844;9.726;2023-10-31T02:41:24;94729.72;;;7.49;100.00
54038;BME280;39954;48.844;9.726;2023-10-31T02:42:27;94722.81;;;7.50;100.00
54038;BME280;39954;48.844;9.726;2023-10-31T02:43:32;94721.91;;;7.51;100.00
54038;BME280;39954;48.844;9.726;2023-10-31T02:44:35;94728.78;;;7.50;100.00
54038;BME280;39954;48.844;9.726;2023-10-31T02:45:40;94726.75;;;7.55;100.00
54038;BME280;39954;48.844;9.726;2023-10-31T02:46:42;94734.63;;;7.54;100.00
54038;BME280;39954;48.844;9.726;2023-10-31T02:47:47;94726.84;;;7.54;100.00
54038;BME280;39954;48.844;9.726;2023-10-31T02:48:49;94730.25;;;7.54;100.00
54038;BME280;39954;48.844;9.726;2023-10-31T02:49:54;94720.75;;;7.55;100.00
54038;BME280;39954;48.844;9.726;2023-10-31T02:50:56;94719.50;;;7.60;100.00
54038;BME280;39954;48.844;9.726;2023-10-31T02:52:01;94719.63;;;7.59;100.00
54038;BME280;39954;48.844;9.726;2023-10-31T02:53:04;94716.31;;;7.57;100.00
54038;BME280;39954;48.844;9.726;2023-10-31T02:54:11;94717.03;;;7.59;100.00
54038;BME280;39954;48.844;9.726;2023-10-31T02:55:13;94718.47;;;7.63;100.00
54038;BME280;39954;48.844;9.726;2023-10-31T02:56:19;94718.38;;;7.65;100.00
54038;BME280;39954;48.844;9.726;2023-10-31T02:57:21;94721.06;;;7.63;100.00
54038;BME280;39954;48.844;9.726;2023-10-31T02:58:26;94720.31;;;7.61;100.00
54038;BME280;39954;48.844;9.726;2023-10-31T02:59:28;94714.94;;;7.64;100.00
54038;BME280;39954;48.844;9.726;2023-10-31T03:00:30;94716.84;;;7.62;100.00
54038;BME280;39954;48.844;9.726;2023-10-31T03:01:35;94717.75;;;7.61;100.00
54038;BME280;39954;48.844;9.726;2023-10-31T03:02:38;94714.47;;;7.59;100.00
54038;BME280;39954;48.844;9.726;2023-10-31T03:03:40;94715.16;;;7.61;100.00
54038;BME280;39954;48.844;9.726;2023-10-31T03:04:45;94717.03;;;7.59;100.00
54038;BME280;39954;48.844;9.726;2023-10-31T03:05:47;94715.56;;;7.55;100.00
54038;BME280;39954;48.844;9.726;2023-10-31T03:06:52;94718.25;;;7.53;100.00
54038;BME280;39954;48.844;9.726;2023-10-31T03:07:54;94721.56;;;7.55;100.00
54038;BME280;39954;48.844;9.726;2023-10-31T03:08:59;94719.31;;;7.51;100.00
54038;BME280;39954;48.844;9.726;2023-10-31T03:10:05;94718.56;;;7.49;100.00
54038;BME280;39954;48.844;9.726;2023-10-31T03:11:20;94717.84;;;7.47;100.00
54038;BME280;39954;48.844;9.726;2023-10-31T03:12:22;94733.34;;;7.47;100.00
54038;BME280;39954;48.844;9.726;2023-10-31T03:13:28;94731.91;;;7.43;100.00
54038;BME280;39954;48.844;9.726;2023-10-31T03:14:30;94735.81;;;7.35;100.00
54038;BME280;39954;48.844;9.726;2023-10-31T03:15:35;94731.66;;;7.33;100.00
54038;BME280;39954;48.844;9.726;2023-10-31T03:16:37;94733.97;;;7.37;100.00
54038;BME280;39954;48.844;9.726;2023-10-31T03:17:42;94734.38;;;7.31;100.00
54038;BME280;39954;48.844;9.726;2023-10-31T03:18:44;94738.50;;;7.34;100.00
54038;BME280;39954;48.844;9.726;2023-10-31T03:19:49;94736.63;;;7.36;100.00
54038;BME280;39954;48.844;9.726;2023-10-31T03:20:51;94740.97;;;7.35;100.00
54038;BME280;39954;48.844;9.726;2023-10-31T03:21:56;94750.00;;;7.43;100.00
54038;BME280;39954;48.844;9.726;2023-10-31T03:22:58;94749.47;;;7.37;100.00
54038;BME280;39954;48.844;9.726;2023-10-31T03:24:04;94748.84;;;7.34;100.00
54038;BME280;39954;48.844;9.726;2023-10-31T03:25:09;94749.88;;;7.31;100.00
54038;BME280;39954;48.844;9.726;2023-10-31T03:26:14;94745.13;;;7.38;100.00
54038;BME280;39954;48.844;9.726;2023-10-31T03:27:16;94748.53;;;7.38;100.00
54038;BME280;39954;48.844;9.726;2023-10-31T03:28:21;94746.97;;;7.36;100.00
54038;BME280;39954;48.844;9.726;2023-10-31T03:29:24;94745.75;;;7.42;100.00
54038;BME280;39954;48.844;9.726;2023-10-31T03:30:29;94743.16;;;7.42;100.00
54038;BME280;39954;48.844;9.726;2023-10-31T03:31:32;94745.94;;;7.38;100.00
54038;BME280;39954;48.844;9.726;2023-10-31T03:32:34;94745.84;;;7.40;100.00
54038;BME280;39954;48.844;9.726;2023-10-31T03:33:39;94741.81;;;7.36;100.00
54038;BME280;39954;48.844;9.726;2023-10-31T03:34:41;94737.66;;;7.33;100.00
54038;BME280;39954;48.844;9.726;2023-10-31T03:35:46;94739.53;;;7.31;100.00
54038;BME280;39954;48.844;9.726;2023-10-31T03:36:49;94752.53;;;7.30;100.00
54038;BME280;39954;48.844;9.726;2023-10-31T03:37:51;94744.06;;;7.28;100.00
54038;BME280;39954;48.844;9.726;2023-10-31T03:38:56;94744.16;;;7.26;100.00
54038;BME280;39954;48.844;9.726;2023-10-31T03:39:58;94745.28;;;7.22;100.00
54038;BME280;39954;48.844;9.726;2023-10-31T03:41:06;94751.38;;;7.21;100.00
54038;BME280;39954;48.844;9.726;2023-10-31T03:42:08;94753.22;;;7.19;100.00
54038;BME280;39954;48.844;9.726;2023-10-31T03:43:13;94750.66;;;7.19;100.00
54038;BME280;39954;48.844;9.726;2023-10-31T03:44:15;94747.16;;;7.20;100.00
54038;BME280;39954;48.844;9.726;2023-10-31T03:45:20;94749.41;;;7.12;100.00
54038;BME280;39954;48.844;9.726;2023-10-31T03:46:22;94757.16;;;7.12;100.00
54038;BME280;39954;48.844;9.726;2023-10-31T03:47:27;94761.50;;;7.11;100.00
54038;BME280;39954;48.844;9.726;2023-10-31T03:48:29;94764.91;;;7.12;100.00
54038;BME280;39954;48.844;9.726;2023-10-31T03:49:37;94759.09;;;7.08;100.00
54038;BME280;39954;48.844;9.726;2023-10-31T03:50:39;94763.53;;;7.06;100.00
54038;BME280;39954;48.844;9.726;2023-10-31T03:51:44;94764.44;;;7.05;100.00
54038;BME280;39954;48.844;9.726;2023-10-31T03:52:46;94768.06;;;7.03;100.00
54038;BME280;39954;48.844;9.726;2023-10-31T03:53:51;94771.28;;;7.06;100.00
54038;BME280;39954;48.844;9.726;2023-10-31T03:54:53;94762.88;;;7.03;100.00
54038;BME280;39954;48.844;9.726;2023-10-31T03:55:58;94768.78;;;7.05;100.00
54038;BME280;39954;48.844;9.726;2023-10-31T03:57:04;94765.38;;;7.04;100.00
54038;BME280;39954;48.844;9.726;2023-10-31T03:58:09;94769.94;;;7.01;100.00
54038;BME280;39954;48.844;9.726;2023-10-31T03:59:11;94764.03;;;6.99;100.00
54038;BME280;39954;48.844;9.726;2023-10-31T04:00:17;94773.53;;;6.98;100.00
54038;BME280;39954;48.844;9.726;2023-10-31T04:01:19;94773.53;;;6.98;100.00
54038;BME280;39954;48.844;9.726;2023-10-31T04:02:24;94765.13;;;6.94;100.00
54038;BME280;39954;48.844;9.726;2023-10-31T04:03:26;94768.84;;;6.90;100.00
54038;BME280;39954;48.844;9.726;2023-10-31T04:04:31;94769.66;;;6.91;100.00
54038;BME280;39954;48.844;9.726;2023-10-31T04:05:33;94775.03;;;6.88;100.00
54038;BME280;39954;48.844;9.726;2023-10-31T04:06:37;94780.13;;;6.89;100.00
54038;BME280;39954;48.844;9.726;2023-10-31T04:07:42;94775.84;;;6.88;100.00
54038;BME280;39954;48.844;9.726;2023-10-31T04:08:47;94777.06;;;6.83;100.00
54038;BME280;39954;48.844;9.726;2023-10-31T04:09:49;94774.78;;;6.78;100.00
54038;BME280;39954;48.844;9.726;2023-10-31T04:10:54;94778.47;;;6.74;100.00
54038;BME280;39954;48.844;9.726;2023-10-31T04:11:56;94770.72;;;6.74;100.00
54038;BME280;39954;48.844;9.726;2023-10-31T04:13:04;94780.16;;;6.75;100.00
54038;BME280;39954;48.844;9.726;2023-10-31T04:14:06;94781.06;;;6.74;100.00
54038;BME280;39954;48.844;9.726;2023-10-31T04:15:09;94778.41;;;6.76;100.00
54038;BME280;39954;48.844;9.726;2023-10-31T04:16:14;94780.66;;;6.80;100.00
54038;BME280;39954;48.844;9.726;2023-10-31T04:17:16;94778.81;;;6.82;100.00
54038;BME280;39954;48.844;9.726;2023-10-31T04:18:21;94779.56;;;6.84;100.00
54038;BME280;39954;48.844;9.726;2023-10-31T04:19:23;94783.25;;;6.80;100.00
54038;BME280;39954;48.844;9.726;2023-10-31T04:20:27;94785.00;;;6.80;100.00
54038;BME280;39954;48.844;9.726;2023-10-31T04:21:29;94785.94;;;6.79;100.00
54038;BME280;39954;48.844;9.726;2023-10-31T04:22:34;94796.09;;;6.82;100.00
54038;BME280;39954;48.844;9.726;2023-10-31T04:23:36;94794.13;;;6.85;100.00
54038;BME280;39954;48.844;9.726;2023-10-31T04:24:41;94794.31;;;6.82;100.00
54038;BME280;39954;48.844;9.726;2023-10-31T04:25:44;94801.31;;;6.80;100.00
54038;BME280;39954;48.844;9.726;2023-10-31T04:26:49;94799.69;;;6.79;100.00
54038;BME280;39954;48.844;9.726;2023-10-31T04:27:51;94803.00;;;6.81;100.00
54038;BME280;39954;48.844;9.726;2023-10-31T04:28:58;94800.31;;;6.83;100.00
54038;BME280;39954;48.844;9.726;2023-10-31T04:30:03;94797.84;;;6.81;100.00
54038;BME280;39954;48.844;9.726;2023-10-31T04:31:08;94800.22;;;6.84;100.00
54038;BME280;39954;48.844;9.726;2023-10-31T04:32:11;94798.47;;;6.85;100.00
54038;BME280;39954;48.844;9.726;2023-10-31T04:33:16;94802.69;;;6.86;100.00
54038;BME280;39954;48.844;9.726;2023-10-31T04:34:18;94805.09;;;6.89;100.00
54038;BME280;39954;48.844;9.726;2023-10-31T04:35:23;94801.41;;;6.93;100.00
54038;BME280;39954;48.844;9.726;2023-10-31T04:36:25;94798.91;;;6.91;100.00
54038;BME280;39954;48.844;9.726;2023-10-31T04:37:29;94801.69;;;6.88;100.00
54038;BME280;39954;48.844;9.726;2023-10-31T04:38:36;94795.63;;;6.89;100.00
54038;BME280;39954;48.844;9.726;2023-10-31T04:39:41;94803.88;;;6.94;100.00
54038;BME280;39954;48.844;9.726;2023-10-31T04:40:43;94800.56;;;6.92;100.00
54038;BME280;39954;48.844;9.726;2023-10-31T04:41:48;94804.06;;;6.91;100.00
54038;BME280;39954;48.844;9.726;2023-10-31T04:42:50;94806.84;;;6.88;100.00
54038;BME280;39954;48.844;9.726;2023-10-31T04:43:58;94805.75;;;6.92;100.00
54038;BME280;39954;48.844;9.726;2023-10-31T04:45:00;94804.06;;;6.91;100.00
54038;BME280;39954;48.844;9.726;2023-10-31T04:46:05;94809.03;;;6.94;100.00
54038;BME280;39954;48.844;9.726;2023-10-31T04:47:07;94810.53;;;6.99;100.00
54038;BME280;39954;48.844;9.726;2023-10-31T04:48:09;94798.00;;;6.92;100.00
54038;BME280;39954;48.844;9.726;2023-10-31T04:49:14;94810.16;;;6.90;100.00
54038;BME280;39954;48.844;9.726;2023-10-31T04:50:17;94805.94;;;6.89;100.00
54038;BME280;39954;48.844;9.726;2023-10-31T04:51:21;94811.09;;;6.89;100.00
54038;BME280;39954;48.844;9.726;2023-10-31T04:52:24;94801.78;;;6.87;100.00
54038;BME280;39954;48.844;9.726;2023-10-31T04:53:28;94802.63;;;6.87;100.00
54038;BME280;39954;48.844;9.726;2023-10-31T04:54:31;94813.03;;;6.86;100.00
54038;BME280;39954;48.844;9.726;2023-10-31T04:55:36;94810.75;;;6.81;100.00
54038;BME280;39954;48.844;9.726;2023-10-31T04:56:38;94813.53;;;6.78;100.00
54038;BME280;39954;48.844;9.726;2023-10-31T04:57:43;94810.09;;;6.78;100.00
54038;BME280;39954;48.844;9.726;2023-10-31T04:58:45;94811.03;;;6.77;100.00
54038;BME280;39954;48.844;9.726;2023-10-31T04:59:53;94813.72;;;6.75;100.00
54038;BME280;39954;48.844;9.726;2023-10-31T05:00:56;94813.72;;;6.75;100.00
54038;BME280;39954;48.844;9.726;2023-10-31T05:02:01;94804.84;;;6.79;100.00
54038;BME280;39954;48.844;9.726;2023-10-31T05:03:04;94804.09;;;6.77;100.00
54038;BME280;39954;48.844;9.726;2023-10-31T05:04:09;94807.63;;;6.76;100.00
54038;BME280;39954;48.844;9.726;2023-10-31T05:05:15;94806.13;;;6.72;100.00
54038;BME280;39954;48.844;9.726;2023-10-31T05:06:20;94807.81;;;6.73;100.00
54038;BME280;39954;48.844;9.726;2023-10-31T05:07:22;94806.81;;;6.76;100.00
54038;BME280;39954;48.844;9.726;2023-10-31T05:08:27;94806.88;;;6.74;100.00
54038;BME280;39954;48.844;9.726;2023-10-31T05:09:30;94815.75;;;6.70;100.00
54038;BME280;39954;48.844;9.726;2023-10-31T05:10:32;94805.22;;;6.73;100.00
54038;BME280;39954;48.844;9.726;2023-10-31T05:11:36;94807.06;;;6.71;100.00
54038;BME280;39954;48.844;9.726;2023-10-31T05:12:39;94811.41;;;6.70;100.00
54038;BME280;39954;48.844;9.726;2023-10-31T05:13:44;94804.50;;;6.71;100.00
54038;BME280;39954;48.844;9.726;2023-10-31T05:14:46;94813.25;;;6.68;100.00
54038;BME280;39954;48.844;9.726;2023-10-31T05:15:53;94816.66;;;6.69;100.00
54038;BME280;39954;48.844;9.726;2023-10-31T05:16:56;94817.59;;;6.68;100.00
54038;BME280;39954;48.844;9.726;2023-10-31T05:18:00;94822.00;;;6.66;100.00
54038;BME280;39954;48.844;9.726;2023-10-31T05:19:03;94819.63;;;6.63;100.00
54038;BME280;39954;48.844;9.726;2023-10-31T05:20:07;94812.81;;;6.62;100.00
54038;BME280;39954;48.844;9.726;2023-10-31T05:21:12;94812.81;;;6.62;100.00
54038;BME280;39954;48.844;9.726;2023-10-31T05:22:14;94821.47;;;6.61;100.00
54038;BME280;39954;48.844;9.726;2023-10-31T05:23:19;94814.47;;;6.63;100.00
54038;BME280;39954;48.844;9.726;2023-10-31T05:24:21;94817.78;;;6.65;100.00
54038;BME280;39954;48.844;9.726;2023-10-31T05:25:26;94821.09;;;6.67;100.00
54038;BME280;39954;48.844;9.726;2023-10-31T05:26:28;94812.91;;;6.60;100.00
54038;BME280;39954;48.844;9.726;2023-10-31T05:27:31;94817.34;;;6.58;100.00
54038;BME280;39954;48.844;9.726;2023-10-31T05:28:36;94819.06;;;6.58;100.00
54038;BME280;39954;48.844;9.726;2023-10-31T05:29:38;94820.00;;;6.57;100.00
54038;BME280;39954;48.844;9.726;2023-10-31T05:30:43;94825.16;;;6.57;100.00
54038;BME280;39954;48.844;9.726;2023-10-31T05:31:48;94827.56;;;6.60;100.00
54038;BME280;39954;48.844;9.726;2023-10-31T05:32:53;94829.31;;;6.59;100.00
54038;BME280;39954;48.844;9.726;2023-10-31T05:33:55;94824.22;;;6.58;100.00
54038;BME280;39954;48.844;9.726;2023-10-31T05:34:57;94824.97;;;6.60;100.00
54038;BME280;39954;48.844;9.726;2023-10-31T05:36:03;94814.84;;;6.57;100.00
54038;BME280;39954;48.844;9.726;2023-10-31T05:37:05;94827.56;;;6.60;100.00
54038;BME280;39954;48.844;9.726;2023-10-31T05:38:10;94833.47;;;6.62;100.00